Time;durP1;ratioP1;P1;durP2;ratioP2;P2;SDS_P1;SDS_P2;PMS_P1;PMS_P2;Temp;Humidity;BMP_temperature;BMP_pressure;BME280_temperature;BME280_humidity;BME280_pressure;Samples;Min_cycle;Max_cycle;Signal;HPM_P1;HPM_P2
2021/11/14 00:00:56;;;;;;;19.45;14.95;;;;;;;8.47;100.00;96610.91;5109875;28;20384;-66
2021/11/14 00:03:23;;;;;;;20.63;15.50;;;;;;;8.37;100.00;96614.00;5105506;28;20389;-66
2021/11/14 00:05:49;;;;;;;17.58;14.43;;;;;;;8.36;100.00;96604.56;5114725;28;20428;-65
2021/11/14 00:08:15;;;;;;;18.35;14.93;;;;;;;8.35;100.00;96608.22;5114422;28;20460;-66
2021/11/14 00:10:44;;;;;;;18.77;14.52;;;;;;;8.13;100.00;96609.63;5109724;28;20586;-65
2021/11/14 00:13:10;;;;;;;20.00;15.23;;;;;;;8.04;100.00;96611.69;5094164;28;20401;-66
2021/11/14 00:15:36;;;;;;;19.00;14.88;;;;;;;8.16;100.00;96607.38;5094305;28;20834;-66
2021/11/14 00:18:02;;;;;;;20.00;15.07;;;;;;;8.19;100.00;96604.31;5097730;28;20457;-65
2021/11/14 00:20:28;;;;;;;17.98;14.90;;;;;;;8.21;100.00;96610.13;5107858;28;20386;-65
2021/11/14 00:22:54;;;;;;;19.70;15.63;;;;;;;8.36;100.00;96607.19;5094143;28;20405;-65
2021/11/14 00:25:20;;;;;;;20.10;15.23;;;;;;;8.34;100.00;96604.00;5094007;28;20378;-65
2021/11/14 00:27:47;;;;;;;18.43;14.60;;;;;;;8.13;100.00;96607.00;5094577;28;20939;-66
2021/11/14 00:30:14;;;;;;;19.85;15.50;;;;;;;8.12;100.00;96615.84;5096071;28;20380;-66
2021/11/14 00:32:40;;;;;;;21.42;17.25;;;;;;;8.21;100.00;96612.72;5112422;28;20396;-66
2021/11/14 00:35:06;;;;;;;19.67;15.63;;;;;;;8.17;100.00;96608.97;5097602;28;20396;-66
2021/11/14 00:37:35;;;;;;;20.20;16.00;;;;;;;8.20;100.00;96605.91;5114131;28;20966;-65
2021/11/14 00:40:01;;;;;;;20.75;15.70;;;;;;;8.26;100.00;96610.28;5094565;28;20382;-65
2021/11/14 00:42:27;;;;;;;21.75;16.58;;;;;;;8.32;100.00;96604.22;5093749;28;20820;-65
2021/11/14 00:44:52;;;;;;;20.67;15.60;;;;;;;8.23;100.00;96613.34;5093931;28;20393;-66
2021/11/14 00:47:18;;;;;;;18.67;15.23;;;;;;;8.13;100.00;96613.03;5091978;28;20398;-66
2021/11/14 00:49:44;;;;;;;22.57;16.90;;;;;;;8.09;100.00;96614.44;5110499;28;20381;-65
2021/11/14 00:52:09;;;;;;;24.80;17.77;;;;;;;8.19;100.00;96616.59;5105040;28;20390;-65
2021/11/14 00:54:34;;;;;;;26.07;18.63;;;;;;;8.12;100.00;96615.84;5105350;28;20897;-66
2021/11/14 00:57:00;;;;;;;30.07;19.70;;;;;;;8.14;100.00;96619.81;5098032;28;20397;-65
2021/11/14 00:59:25;;;;;;;34.10;21.17;;;;;;;8.21;100.00;96619.75;5091910;28;20474;-67
2021/11/14 01:01:51;;;;;;;31.13;20.37;;;;;;;8.23;100.00;96618.56;5093484;28;20401;-66
2021/11/14 01:04:17;;;;;;;34.08;21.88;;;;;;;8.27;100.00;96609.25;5106837;28;20445;-65
2021/11/14 01:06:43;;;;;;;33.60;20.90;;;;;;;8.25;100.00;96624.34;5095996;28;20404;-66
2021/11/14 01:09:08;;;;;;;35.93;22.03;;;;;;;8.17;100.00;96623.84;5093463;28;20394;-66
2021/11/14 01:11:34;;;;;;;35.23;21.07;;;;;;;8.19;100.00;96617.38;5093069;28;20390;-66
2021/11/14 01:13:59;;;;;;;38.10;21.65;;;;;;;8.17;100.00;96626.44;5093235;28;20390;-66
2021/11/14 01:16:25;;;;;;;34.23;21.63;;;;;;;8.16;100.00;96623.03;5107065;28;20462;-66
2021/11/14 01:18:50;;;;;;;34.53;20.75;;;;;;;8.17;100.00;96623.84;5091635;28;20459;-67
2021/11/14 01:21:17;;;;;;;30.33;19.77;;;;;;;8.11;100.00;96625.50;5106676;28;20388;-65
2021/11/14 01:23:44;;;;;;;27.27;19.10;;;;;;;7.98;100.00;96627.41;5112906;28;20392;-66
2021/11/14 01:26:10;;;;;;;27.88;18.40;;;;;;;8.06;100.00;96629.75;5101313;28;20461;-65
2021/11/14 01:28:35;;;;;;;25.33;18.17;;;;;;;7.94;100.00;96627.03;5091441;28;20397;-68
2021/11/14 01:31:02;;;;;;;27.17;18.87;;;;;;;8.04;100.00;96626.53;5093338;28;20390;-66
2021/11/14 01:33:29;;;;;;;28.00;18.73;;;;;;;8.13;100.00;96627.88;5089749;28;20466;-66
2021/11/14 01:35:57;;;;;;;25.67;18.37;;;;;;;8.14;100.00;96630.25;5092973;28;20397;-66
2021/11/14 01:38:25;;;;;;;24.95;18.08;;;;;;;8.12;100.00;96634.91;5092976;28;20434;-68
2021/11/14 01:40:54;;;;;;;26.70;19.03;;;;;;;8.06;100.00;96634.97;5082244;28;20398;-65
2021/11/14 01:43:22;;;;;;;25.67;18.83;;;;;;;8.01;100.00;96632.22;5105382;28;20411;-65
2021/11/14 01:45:48;;;;;;;26.38;18.55;;;;;;;7.98;100.00;96633.41;5112057;28;20407;-66
2021/11/14 01:48:14;;;;;;;24.37;17.57;;;;;;;7.97;100.00;96633.66;5108086;28;20396;-65
2021/11/14 01:50:40;;;;;;;22.77;17.03;;;;;;;8.03;100.00;96635.38;5092727;28;20378;-66
2021/11/14 01:53:06;;;;;;;19.98;15.25;;;;;;;7.89;100.00;96632.91;5104345;28;20453;-65
2021/11/14 01:55:33;;;;;;;19.92;15.05;;;;;;;8.04;100.00;96634.38;5112583;28;20384;-66
2021/11/14 01:57:59;;;;;;;20.57;14.67;;;;;;;8.05;100.00;96631.56;5096325;28;20424;-66
2021/11/14 02:00:30;;;;;;;19.03;14.10;;;;;;;8.06;100.00;96634.97;5092232;28;20826;-66
2021/11/14 02:02:56;;;;;;;17.40;13.60;;;;;;;8.01;100.00;96627.78;5098522;28;20894;-65
2021/11/14 02:05:24;;;;;;;17.20;13.90;;;;;;;8.28;100.00;96629.16;5092240;28;20441;-65
2021/11/14 02:07:52;;;;;;;17.52;14.38;;;;;;;8.03;100.00;96630.16;5092410;28;20397;-65
2021/11/14 02:10:18;;;;;;;17.27;13.32;;;;;;;7.97;100.00;96631.81;5092196;28;20390;-66
2021/11/14 02:12:44;;;;;;;18.05;14.32;;;;;;;8.07;100.00;96628.75;5093085;28;20476;-66
2021/11/14 02:15:09;;;;;;;20.25;14.57;;;;;;;7.92;100.00;96624.63;5092279;28;20876;-66
2021/11/14 02:17:35;;;;;;;19.63;15.13;;;;;;;8.01;100.00;96627.78;5092470;28;20504;-66
2021/11/14 02:20:01;;;;;;;20.55;15.38;;;;;;;8.06;100.00;96614.91;5092437;28;20541;-66
2021/11/14 02:22:27;;;;;;;21.10;16.03;;;;;;;8.08;100.00;96617.31;5112082;28;20452;-66
2021/11/14 02:24:52;;;;;;;19.40;15.00;;;;;;;8.11;100.00;96628.09;5111474;28;20396;-66
2021/11/14 02:27:17;;;;;;;18.30;14.45;;;;;;;8.05;100.00;96617.72;5112013;28;20393;-66
2021/11/14 02:29:43;;;;;;;18.50;15.03;;;;;;;8.04;100.00;96622.13;5090523;28;20402;-66
2021/11/14 02:32:09;;;;;;;19.03;14.37;;;;;;;8.10;100.00;96626.50;5091375;28;20393;-66
2021/11/14 02:34:34;;;;;;;18.45;14.93;;;;;;;7.96;100.00;96622.41;5093797;28;20399;-66
2021/11/14 02:37:00;;;;;;;20.53;14.40;;;;;;;7.84;100.00;96621.50;5109507;28;20419;-66
2021/11/14 02:39:26;;;;;;;19.63;14.88;;;;;;;7.92;100.00;96627.25;5100117;28;20724;-66
2021/11/14 02:41:52;;;;;;;21.10;15.80;;;;;;;7.90;100.00;96620.66;5092074;28;20402;-66
2021/11/14 02:44:17;;;;;;;19.42;15.02;;;;;;;7.97;100.00;96624.00;5091728;28;20743;-66
2021/11/14 02:46:43;;;;;;;19.37;15.20;;;;;;;8.02;100.00;96625.97;5091988;28;20451;-66
2021/11/14 02:49:08;;;;;;;17.05;13.88;;;;;;;8.01;100.00;96621.78;5105683;28;20407;-66
2021/11/14 02:51:35;;;;;;;20.47;14.07;;;;;;;7.92;100.00;96621.22;5111797;28;20392;-66
2021/11/14 02:54:02;;;;;;;18.55;14.75;;;;;;;8.04;100.00;96627.34;5111712;28;20404;-66
2021/11/14 02:56:29;;;;;;;20.13;15.50;;;;;;;8.05;100.00;96620.31;5107347;28;20795;-66
2021/11/14 02:58:55;;;;;;;20.73;15.30;;;;;;;8.07;100.00;96629.53;5099887;28;20394;-66
2021/11/14 03:01:28;;;;;;;21.15;15.82;;;;;;;8.00;100.00;96625.38;5090357;28;20390;-66
2021/11/14 03:03:55;;;;;;;20.70;15.85;;;;;;;7.99;100.00;96626.38;5089889;28;20405;-66
2021/11/14 03:06:23;;;;;;;21.52;16.02;;;;;;;8.10;100.00;96636.94;5092363;28;20495;-66
2021/11/14 03:08:49;;;;;;;23.95;16.38;;;;;;;7.88;100.00;96631.31;5092938;28;20401;-66
2021/11/14 03:11:16;;;;;;;21.98;16.13;;;;;;;7.86;100.00;96627.28;5091524;28;20390;-66
2021/11/14 03:13:41;;;;;;;24.23;16.47;;;;;;;7.87;100.00;96632.31;5093183;28;20389;-66
2021/11/14 03:16:11;;;;;;;24.03;17.60;;;;;;;7.93;100.00;96628.03;5106951;28;20414;-66
2021/11/14 03:18:36;;;;;;;26.35;17.83;;;;;;;8.00;100.00;96635.81;5107776;28;20384;-66
2021/11/14 03:21:02;;;;;;;24.20;16.87;;;;;;;8.08;100.00;96632.97;5116069;28;20438;-65
2021/11/14 03:23:28;;;;;;;25.17;18.37;;;;;;;8.05;100.00;96635.97;5115469;28;20408;-66
2021/11/14 03:25:55;;;;;;;27.08;18.35;;;;;;;8.04;100.00;96632.56;5109458;28;20454;-66
2021/11/14 03:28:21;;;;;;;23.77;18.13;;;;;;;8.07;100.00;96633.97;5110294;28;20910;-66
2021/11/14 03:30:50;;;;;;;24.45;17.90;;;;;;;7.95;100.00;96641.69;5094945;28;20397;-66
2021/11/14 03:33:15;;;;;;;25.70;18.40;;;;;;;8.02;100.00;96633.81;5099917;28;20400;-65
2021/11/14 03:35:50;;;;;;;21.60;17.20;;;;;;;8.08;100.00;96641.56;5107260;28;20463;-64
2021/11/14 03:38:18;;;;;;;20.58;15.90;;;;;;;8.09;100.00;96642.34;5095079;28;20382;-64
2021/11/14 03:40:43;;;;;;;21.80;15.02;;;;;;;8.07;100.00;96640.00;5110978;28;20502;-65
2021/11/14 03:43:09;;;;;;;19.27;14.40;;;;;;;7.97;100.00;96644.09;5114697;28;20388;-65
2021/11/14 03:45:36;;;;;;;19.23;14.43;;;;;;;7.90;100.00;96644.94;5108949;28;20382;-65
2021/11/14 03:48:02;;;;;;;19.30;14.25;;;;;;;7.93;100.00;96641.91;5098277;28;20388;-65
2021/11/14 03:50:28;;;;;;;19.75;14.10;;;;;;;7.89;100.00;96648.56;5115127;28;20887;-65
2021/11/14 03:52:54;;;;;;;20.25;14.43;;;;;;;7.94;100.00;96648.72;5112334;28;20388;-65
2021/11/14 03:55:19;;;;;;;20.40;14.85;;;;;;;8.01;100.00;96656.50;5093270;28;20410;-65
2021/11/14 03:57:45;;;;;;;20.53;14.80;;;;;;;7.98;100.00;96653.50;5093073;28;20418;-65
2021/11/14 04:00:17;;;;;;;19.10;14.40;;;;;;;7.97;100.00;96650.09;5094898;28;20442;-65
2021/11/14 04:02:44;;;;;;;19.55;14.10;;;;;;;8.07;100.00;96654.84;5102486;28;20405;-65
2021/11/14 04:05:09;;;;;;;17.37;13.60;;;;;;;8.08;100.00;96651.22;5103037;28;20770;-65
2021/11/14 04:07:35;;;;;;;18.80;14.23;;;;;;;8.12;100.00;96657.63;5094715;28;20401;-65
2021/11/14 04:10:01;;;;;;;17.93;13.80;;;;;;;8.07;100.00;96647.81;5094226;28;20397;-65
2021/11/14 04:12:26;;;;;;;17.13;13.15;;;;;;;8.06;100.00;96654.03;5094500;28;20518;-65
2021/11/14 04:14:51;;;;;;;18.50;13.27;;;;;;;8.17;100.00;96648.13;5101486;28;20411;-65
2021/11/14 04:17:17;;;;;;;16.55;13.20;;;;;;;8.24;100.00;96654.09;5114040;28;20485;-65
2021/11/14 04:19:42;;;;;;;17.83;13.97;;;;;;;8.17;100.00;96649.94;5101250;28;20884;-65
2021/11/14 04:22:07;;;;;;;17.50;13.17;;;;;;;8.04;100.00;96648.22;5096047;28;20392;-65
2021/11/14 04:24:33;;;;;;;17.13;13.23;;;;;;;7.93;100.00;96652.34;5106138;28;20397;-65
2021/11/14 04:26:58;;;;;;;16.50;13.17;;;;;;;8.04;100.00;96645.63;5094316;28;20818;-65
2021/11/14 04:29:24;;;;;;;16.37;12.93;;;;;;;8.03;100.00;96657.06;5093892;28;20396;-65
2021/11/14 04:31:49;;;;;;;16.30;12.77;;;;;;;7.97;100.00;96651.91;5093715;28;20382;-65
2021/11/14 04:34:14;;;;;;;17.60;12.77;;;;;;;8.09;100.00;96658.81;5102950;28;20398;-65
2021/11/14 04:36:40;;;;;;;16.27;12.83;;;;;;;8.16;100.00;96662.19;5093756;28;20406;-65
2021/11/14 04:39:05;;;;;;;19.17;13.95;;;;;;;8.07;100.00;96663.47;5094379;28;20398;-65
2021/11/14 04:41:31;;;;;;;20.30;15.40;;;;;;;8.18;100.00;96673.22;5094061;28;20476;-65
2021/11/14 04:43:56;;;;;;;20.87;16.60;;;;;;;8.18;100.00;96675.84;5094280;28;20447;-65
2021/11/14 04:46:22;;;;;;;24.90;18.80;;;;;;;8.03;100.00;96683.16;5106975;28;20756;-65
2021/11/14 04:48:47;;;;;;;23.13;18.23;;;;;;;8.09;100.00;96681.50;5102351;28;20742;-65
2021/11/14 04:51:13;;;;;;;23.13;17.57;;;;;;;7.80;100.00;96688.94;5093940;28;20871;-65
2021/11/14 04:53:38;;;;;;;20.67;16.17;;;;;;;7.89;100.00;96695.53;5093778;28;20808;-65
2021/11/14 04:56:04;;;;;;;17.83;13.93;;;;;;;7.80;100.00;96686.34;5093244;28;20474;-65
2021/11/14 04:58:29;;;;;;;18.23;14.30;;;;;;;7.88;100.00;96688.69;5093797;28;20390;-65
2021/11/14 05:00:55;;;;;;;16.77;13.63;;;;;;;7.91;100.00;96697.94;5092046;28;20406;-65
2021/11/14 05:03:21;;;;;;;20.87;15.33;;;;;;;8.13;100.00;96687.94;5099517;28;20394;-65
2021/11/14 05:05:47;;;;;;;21.70;16.20;;;;;;;7.85;100.00;96691.75;5093157;28;20410;-65
2021/11/14 05:08:12;;;;;;;21.80;16.10;;;;;;;7.64;100.00;96689.47;5111332;28;20402;-66
2021/11/14 05:10:39;;;;;;;22.60;15.80;;;;;;;7.52;100.00;96685.94;5113163;28;20380;-65
2021/11/14 05:13:05;;;;;;;23.83;16.07;;;;;;;7.76;100.00;96692.19;5077160;28;20854;-65
2021/11/14 05:15:30;;;;;;;20.17;14.80;;;;;;;7.77;100.00;96696.41;5093146;28;20440;-65
2021/11/14 05:17:56;;;;;;;20.20;14.63;;;;;;;7.85;100.00;96696.97;5105908;28;20427;-65
2021/11/14 05:20:22;;;;;;;18.73;13.90;;;;;;;7.91;100.00;96705.75;5093118;28;20447;-65
2021/11/14 05:22:47;;;;;;;17.98;14.02;;;;;;;8.00;100.00;96701.06;5107713;28;20388;-65
2021/11/14 05:25:13;;;;;;;18.90;13.67;;;;;;;7.96;100.00;96705.91;5111925;28;20926;-67
2021/11/14 05:27:39;;;;;;;18.50;14.10;;;;;;;7.98;100.00;96705.69;5093952;28;20386;-65
2021/11/14 05:30:06;;;;;;;18.00;13.95;;;;;;;8.09;100.00;96713.63;5092870;28;20389;-67
2021/11/14 05:32:32;;;;;;;18.67;13.53;;;;;;;8.13;100.00;96707.00;5104123;28;20400;-65
2021/11/14 05:34:57;;;;;;;16.87;12.93;;;;;;;8.22;100.00;96708.31;5093317;28;20394;-65
2021/11/14 05:37:22;;;;;;;20.17;13.63;;;;;;;8.32;100.00;96706.06;5093613;28;20412;-65
2021/11/14 05:39:48;;;;;;;15.67;12.17;;;;;;;8.28;100.00;96710.09;5093432;28;20405;-65
2021/11/14 05:42:13;;;;;;;16.88;12.90;;;;;;;8.12;100.00;96715.03;5092753;28;20385;-65
2021/11/14 05:44:39;;;;;;;18.50;13.53;;;;;;;7.86;100.00;96710.78;5092412;28;20469;-65
2021/11/14 05:47:05;;;;;;;17.88;13.48;;;;;;;7.81;100.00;96711.41;5091082;28;20393;-65
2021/11/14 05:49:30;;;;;;;19.60;13.93;;;;;;;7.90;100.00;96712.78;5107894;28;20740;-65
2021/11/14 05:51:55;;;;;;;18.73;13.73;;;;;;;7.63;100.00;96715.78;5112122;28;20396;-65
2021/11/14 05:54:21;;;;;;;18.23;13.40;;;;;;;7.88;100.00;96719.22;5112312;28;20394;-65
2021/11/14 05:56:47;;;;;;;17.00;13.40;;;;;;;7.73;100.00;96724.72;5090977;28;20485;-65
2021/11/14 05:59:59;;;;;;;16.90;13.37;;;;;;;7.57;100.00;96735.66;5092611;28;20398;-65
2021/11/14 06:02:48;;;;;;;17.65;13.07;;;;;;;7.57;100.00;96732.25;5091784;28;20397;-65
2021/11/14 06:05:01;;;;;;;15.68;12.75;;;;;;;7.75;100.00;96729.72;5069559;28;20406;-65
2021/11/14 06:07:29;;;;;;;16.10;12.68;;;;;;;7.82;100.00;96735.72;5112568;28;20427;-65
2021/11/14 06:10:00;;;;;;;16.95;13.27;;;;;;;7.97;100.00;96738.03;5112253;28;20449;-65
2021/11/14 06:12:27;;;;;;;16.30;12.90;;;;;;;8.03;100.00;96740.59;5093834;28;20626;-65
2021/11/14 06:14:52;;;;;;;15.75;12.55;;;;;;;7.92;100.00;96741.25;5090836;28;20813;-65
2021/11/14 06:17:20;;;;;;;16.90;12.60;;;;;;;7.99;100.00;96739.41;5092362;28;20498;-65
2021/11/14 06:19:48;;;;;;;17.95;13.25;;;;;;;7.89;100.00;96737.28;5109406;28;20459;-65
2021/11/14 06:22:16;;;;;;;15.70;12.30;;;;;;;7.85;100.00;96741.31;5093890;28;20404;-65
2021/11/14 06:24:42;;;;;;;16.38;12.35;;;;;;;7.81;100.00;96742.72;5111974;28;20395;-67
2021/11/14 06:27:07;;;;;;;19.25;13.15;;;;;;;7.79;100.00;96744.78;5098839;28;20430;-65
2021/11/14 06:29:32;;;;;;;18.52;12.43;;;;;;;7.89;100.00;96747.72;5108372;28;20472;-66
2021/11/14 06:31:58;;;;;;;16.03;12.77;;;;;;;7.98;100.00;96757.88;5111754;28;20934;-66
2021/11/14 06:34:24;;;;;;;16.02;12.45;;;;;;;7.94;100.00;96753.09;5096894;28;20447;-65
2021/11/14 06:36:49;;;;;;;16.58;12.52;;;;;;;8.07;100.00;96751.41;5091299;28;20932;-66
2021/11/14 06:39:15;;;;;;;16.40;12.47;;;;;;;8.13;100.00;96754.00;5105474;28;20384;-66
2021/11/14 06:41:40;;;;;;;16.57;13.00;;;;;;;8.09;100.00;96760.63;5112464;28;20423;-66
2021/11/14 06:44:05;;;;;;;16.57;12.27;;;;;;;7.93;100.00;96761.94;5111528;28;20387;-65
2021/11/14 06:46:31;;;;;;;17.87;13.17;;;;;;;7.96;100.00;96760.72;5111904;28;20403;-66
2021/11/14 06:48:56;;;;;;;17.03;12.77;;;;;;;7.99;100.00;96760.28;5103643;28;20378;-68
2021/11/14 06:51:22;;;;;;;17.25;13.32;;;;;;;8.04;100.00;96762.25;5096491;28;20397;-66
2021/11/14 06:53:47;;;;;;;16.90;13.47;;;;;;;8.20;100.00;96766.97;5105382;28;20389;-65
2021/11/14 06:56:13;;;;;;;17.05;13.73;;;;;;;8.24;100.00;96774.19;5096186;28;20405;-65
2021/11/14 06:58:38;;;;;;;18.73;13.93;;;;;;;8.26;100.00;96774.75;5097452;28;20410;-65
2021/11/14 07:01:03;;;;;;;18.42;13.80;;;;;;;8.24;100.00;96776.81;5112574;28;20394;-65
2021/11/14 07:03:29;;;;;;;19.50;13.93;;;;;;;8.33;100.00;96787.81;5103273;28;20403;-65
2021/11/14 07:05:54;;;;;;;18.17;13.68;;;;;;;8.41;100.00;96786.75;5115425;28;20408;-66
2021/11/14 07:08:20;;;;;;;18.13;12.77;;;;;;;8.53;100.00;96792.88;5110198;28;20500;-65
2021/11/14 07:10:45;;;;;;;17.67;13.30;;;;;;;8.25;100.00;96795.84;5095867;28;20425;-65
2021/11/14 07:13:11;;;;;;;16.00;12.40;;;;;;;8.18;100.00;96798.53;5095817;28;20812;-66
2021/11/14 07:15:36;;;;;;;17.73;13.60;;;;;;;8.11;100.00;96794.34;5095411;28;20385;-66
2021/11/14 07:18:02;;;;;;;19.70;14.07;;;;;;;8.18;100.00;96798.53;5104665;28;20412;-66
2021/11/14 07:20:28;;;;;;;18.40;14.07;;;;;;;8.18;100.00;96795.91;5095246;28;20416;-66
2021/11/14 07:22:53;;;;;;;20.53;14.90;;;;;;;8.14;100.00;96799.13;5095827;28;20389;-68
2021/11/14 07:25:19;;;;;;;20.02;14.80;;;;;;;8.19;100.00;96801.94;5095498;28;20386;-67
2021/11/14 07:27:48;;;;;;;21.52;15.55;;;;;;;8.07;100.00;96808.84;5095697;28;20889;-67
2021/11/14 07:30:14;;;;;;;21.65;15.70;;;;;;;7.80;100.00;96814.19;5115424;28;20392;-67
2021/11/14 07:32:41;;;;;;;24.25;16.63;;;;;;;7.71;100.00;96819.84;5114125;28;20411;-67
2021/11/14 07:35:12;;;;;;;22.13;16.55;;;;;;;7.61;100.00;96817.69;5110659;28;20466;-67
2021/11/14 07:37:38;;;;;;;24.10;16.98;;;;;;;7.62;100.00;96821.09;5106396;28;20405;-67
2021/11/14 07:40:05;;;;;;;25.67;16.25;;;;;;;7.63;100.00;96820.91;5098419;28;20435;-65
2021/11/14 07:42:31;;;;;;;27.35;17.77;;;;;;;7.63;100.00;96831.34;5115032;28;20722;-66
2021/11/14 07:44:57;;;;;;;24.30;17.35;;;;;;;7.60;100.00;96831.72;5092785;28;20735;-66
2021/11/14 07:47:22;;;;;;;26.97;19.20;;;;;;;7.55;100.00;96835.97;5093453;28;20394;-67
2021/11/14 07:49:48;;;;;;;26.38;18.30;;;;;;;7.55;100.00;96833.34;5113059;28;20380;-70
2021/11/14 07:52:13;;;;;;;26.45;18.17;;;;;;;7.85;100.00;96840.47;5096769;28;20389;-67
2021/11/14 07:54:39;;;;;;;25.77;18.30;;;;;;;7.94;100.00;96835.81;5106931;28;20491;-66
2021/11/14 07:57:05;;;;;;;27.52;18.80;;;;;;;8.11;100.00;96838.72;5102791;28;20423;-67
2021/11/14 07:59:30;;;;;;;23.67;17.58;;;;;;;8.01;100.00;96839.19;5114421;28;20392;-66
2021/11/14 08:01:55;;;;;;;24.50;17.20;;;;;;;7.87;100.00;96841.06;5101692;28;20397;-67
2021/11/14 08:04:21;;;;;;;25.13;17.38;;;;;;;7.94;100.00;96841.03;5103668;28;20786;-67
2021/11/14 08:06:46;;;;;;;24.23;17.83;;;;;;;7.96;100.00;96840.81;5094880;28;20769;-67
2021/11/14 08:09:13;;;;;;;25.85;18.20;;;;;;;7.94;100.00;96847.03;5102132;28;20949;-67
2021/11/14 08:11:38;;;;;;;24.57;17.03;;;;;;;7.87;100.00;96848.88;5105474;28;20390;-67
2021/11/14 08:14:04;;;;;;;24.90;17.57;;;;;;;7.90;100.00;96847.69;5096801;28;20411;-67
2021/11/14 08:16:29;;;;;;;21.23;15.65;;;;;;;8.05;100.00;96850.00;5114234;28;20404;-67
2021/11/14 08:18:55;;;;;;;17.67;13.83;;;;;;;8.12;100.00;96853.38;5103338;28;20651;-67
2021/11/14 08:21:20;;;;;;;16.57;12.93;;;;;;;8.55;100.00;96840.50;5094486;28;20382;-66
2021/11/14 08:23:45;;;;;;;16.70;12.90;;;;;;;8.50;100.00;96840.31;5094660;28;20396;-67
2021/11/14 08:26:11;;;;;;;17.88;12.73;;;;;;;8.30;100.00;96849.06;5114119;28;20404;-67
2021/11/14 08:28:37;;;;;;;15.80;12.70;;;;;;;8.40;100.00;96842.59;5114022;28;20756;-67
2021/11/14 08:31:02;;;;;;;18.15;13.60;;;;;;;8.19;100.00;96844.50;5111238;28;20397;-68
2021/11/14 08:33:30;;;;;;;18.73;14.03;;;;;;;8.27;100.00;96846.88;5091890;28;20466;-67
2021/11/14 08:35:55;;;;;;;17.70;13.30;;;;;;;8.04;100.00;96851.81;5108240;28;20384;-66
2021/11/14 08:38:21;;;;;;;19.23;14.10;;;;;;;8.17;100.00;96845.72;5099913;28;20781;-69
2021/11/14 08:40:46;;;;;;;17.83;13.83;;;;;;;8.15;100.00;96852.97;5110587;28;20437;-68
2021/11/14 08:43:11;;;;;;;16.23;12.48;;;;;;;8.19;100.00;96846.34;5096095;28;20407;-69
2021/11/14 08:45:37;;;;;;;16.87;13.03;;;;;;;8.24;100.00;96851.72;5112381;28;20444;-67
2021/11/14 08:48:04;;;;;;;16.02;12.85;;;;;;;8.44;100.00;96841.97;5092322;28;20451;-67
2021/11/14 08:50:31;;;;;;;15.27;12.50;;;;;;;8.60;100.00;96856.31;5093567;28;20871;-67
2021/11/14 08:52:57;;;;;;;16.55;12.95;;;;;;;8.61;100.00;96850.91;5093511;28;20926;-68
2021/11/14 08:55:25;;;;;;;17.08;12.43;;;;;;;8.80;100.00;96854.38;5096348;28;20535;-69
2021/11/14 08:57:52;;;;;;;15.55;12.13;;;;;;;9.20;100.00;96860.03;5113529;28;20404;-69
2021/11/14 09:00:21;;;;;;;14.45;11.57;;;;;;;9.37;100.00;96863.69;5108571;28;20477;-69
2021/11/14 09:02:52;;;;;;;14.52;11.98;;;;;;;9.13;100.00;96861.94;5107868;28;20392;-68
2021/11/14 09:05:20;;;;;;;13.73;11.47;;;;;;;9.36;99.88;96869.94;5093038;28;20866;-69
2021/11/14 09:07:45;;;;;;;14.37;11.10;;;;;;;9.39;100.00;96877.38;5094399;28;20394;-70
2021/11/14 09:10:12;;;;;;;15.00;11.57;;;;;;;9.07;100.00;96875.88;5093713;28;20393;-69
2021/11/14 09:12:38;;;;;;;15.30;12.17;;;;;;;9.10;100.00;96873.63;5108890;28;20883;-69
2021/11/14 09:15:04;;;;;;;14.50;11.82;;;;;;;8.91;100.00;96868.56;5111401;28;20464;-75
2021/11/14 09:17:29;;;;;;;16.45;12.75;;;;;;;8.92;100.00;96875.38;5112846;28;20507;-68
2021/11/14 09:19:55;;;;;;;15.83;12.80;;;;;;;8.98;100.00;96875.31;5095284;28;20928;-69
2021/11/14 09:22:21;;;;;;;15.77;12.30;;;;;;;8.89;100.00;96876.63;5108510;28;20392;-70
2021/11/14 09:24:47;;;;;;;15.88;12.35;;;;;;;9.17;100.00;96871.75;5096730;28;20406;-69
2021/11/14 09:27:12;;;;;;;15.85;12.48;;;;;;;9.05;100.00;96883.91;5097290;28;20473;-69
2021/11/14 09:29:38;;;;;;;15.10;12.20;;;;;;;9.17;100.00;96881.41;5092590;28;20393;-70
2021/11/14 09:32:04;;;;;;;15.75;12.20;;;;;;;9.32;100.00;96878.44;5092001;28;20463;-69
2021/11/14 09:34:29;;;;;;;15.88;12.80;;;;;;;9.23;100.00;96883.16;5094155;28;20414;-68
2021/11/14 09:36:54;;;;;;;18.03;12.83;;;;;;;8.71;100.00;96881.78;5112163;28;20412;-69
2021/11/14 09:39:20;;;;;;;17.58;12.95;;;;;;;8.68;100.00;96893.47;5112636;28;20404;-69
2021/11/14 09:41:48;;;;;;;16.73;12.90;;;;;;;9.06;100.00;96889.94;5091242;28;20485;-69
2021/11/14 09:44:16;;;;;;;20.02;13.20;;;;;;;9.02;100.00;96894.81;5061607;28;20384;-69
2021/11/14 09:46:47;;;;;;;17.92;13.00;;;;;;;8.85;100.00;96900.78;5113031;28;20891;-69
2021/11/14 09:49:14;;;;;;;18.73;13.23;;;;;;;8.81;100.00;96908.22;5100893;28;20483;-65
2021/11/14 09:51:39;;;;;;;21.42;14.25;;;;;;;8.49;100.00;96910.03;5094551;28;20392;-65
2021/11/14 09:54:07;;;;;;;22.10;14.73;;;;;;;9.38;100.00;96907.16;5110326;28;20392;-65
2021/11/14 09:56:33;;;;;;;19.48;13.45;;;;;;;9.98;97.18;96907.31;5100156;28;20404;-65
2021/11/14 09:58:58;;;;;;;19.52;13.25;;;;;;;9.36;99.09;96919.63;5112409;28;20387;-66
2021/11/14 10:01:24;;;;;;;20.23;14.20;;;;;;;9.22;100.00;96914.75;5112257;28;20860;-65
2021/11/14 10:03:49;;;;;;;24.80;15.10;;;;;;;9.18;100.00;96911.78;5097760;28;20401;-66
2021/11/14 10:06:18;;;;;;;21.00;14.97;;;;;;;9.25;100.00;96915.09;5093795;28;20414;-68
2021/11/14 10:08:45;;;;;;;21.65;15.20;;;;;;;9.32;100.00;96918.47;5093469;28;20383;-68
2021/11/14 10:11:11;;;;;;;21.63;15.30;;;;;;;9.35;100.00;96914.63;5092803;28;20385;-67
2021/11/14 10:13:39;;;;;;;21.97;15.27;;;;;;;9.61;99.24;96903.91;5103023;28;20779;-67
2021/11/14 10:16:08;;;;;;;19.42;14.35;;;;;;;9.50;100.00;96910.66;5111728;28;20940;-66
2021/11/14 10:18:33;;;;;;;19.88;13.27;;;;;;;9.59;99.17;96911.16;5093555;28;20396;-69
2021/11/14 10:21:02;;;;;;;22.80;14.73;;;;;;;9.75;97.76;96910.59;5111583;28;20888;-69
2021/11/14 10:23:28;;;;;;;22.75;14.57;;;;;;;9.89;97.69;96916.50;5101385;28;20863;-68
2021/11/14 10:25:56;;;;;;;20.85;14.23;;;;;;;9.86;97.17;96912.47;5090582;28;20468;-70
2021/11/14 10:28:26;;;;;;;25.90;15.00;;;;;;;9.58;99.65;96907.75;5090441;28;20394;-68
2021/11/14 10:30:52;;;;;;;22.17;14.82;;;;;;;9.40;100.00;96910.38;5079946;28;20388;-67
2021/11/14 10:33:19;;;;;;;24.25;14.32;;;;;;;9.52;99.58;96913.06;5109467;28;20396;-67
2021/11/14 10:35:48;;;;;;;21.92;14.13;;;;;;;9.54;98.93;96921.50;5093035;28;20426;-68
2021/11/14 10:38:16;;;;;;;21.63;13.73;;;;;;;9.67;99.18;96912.72;5111497;28;20416;-67
2021/11/14 10:40:46;;;;;;;28.30;19.30;;;;;;;9.80;99.97;96912.59;5111324;28;20873;-68
2021/11/14 10:43:11;;;;;;;24.70;16.83;;;;;;;8.70;100.00;96922.78;5089830;28;20378;-70
2021/11/14 10:45:40;;;;;;;20.97;13.87;;;;;;;8.97;100.00;96909.53;5093113;28;20443;-66
2021/11/14 10:48:17;;;;;;;23.38;13.60;;;;;;;9.53;100.00;96918.06;5092151;28;20404;-65
2021/11/14 10:50:46;;;;;;;21.58;14.05;;;;;;;9.43;100.00;96917.75;5105398;28;20400;-66
2021/11/14 10:53:15;;;;;;;20.60;13.70;;;;;;;9.88;100.00;96912.28;5110575;28;20787;-67
2021/11/14 10:55:50;;;;;;;19.95;13.35;;;;;;;9.92;97.92;96919.47;5092852;28;20400;-66
2021/11/14 10:58:17;;;;;;;19.50;12.57;;;;;;;9.02;100.00;96928.00;5100727;28;20865;-66
2021/11/14 11:00:45;;;;;;;17.75;12.00;;;;;;;9.21;100.00;96923.59;5098330;28;20382;-66
2021/11/14 11:03:11;;;;;;;18.25;11.70;;;;;;;8.60;100.00;96922.44;5089930;28;20416;-66
2021/11/14 11:05:38;;;;;;;21.92;13.25;;;;;;;8.86;100.00;96925.91;5093723;28;20491;-67
2021/11/14 11:08:06;;;;;;;21.20;13.38;;;;;;;9.31;100.00;96918.69;5111081;28;20404;-67
2021/11/14 11:10:37;;;;;;;19.92;13.50;;;;;;;9.22;100.00;96928.63;5099565;28;20398;-66
2021/11/14 11:13:07;;;;;;;19.70;13.48;;;;;;;9.49;99.20;96919.53;5091677;28;20455;-66